ENVA

Trondheim , Værnes Airport

Trondheim, Norway
METAR ENVA 161020Z 12009KT 9999 FEW025 SCT040 M05/M08 Q1004 NOSIG RMK WIND 670FT 16006KT
Observed Flight Rules
Dec-16 @ 10:20 UTC (42 minutes ago) Visual Flight Rules
Wind Visibility Clouds
120° at 9 knots 10,000+ meters
  • Few at 2,500' AGL
  • Scattered at 4,000' AGL
Temperatures Readings
Current -5°C / 23°F
Dewpoint -8°C / 18°F
Humidity 80%
Altimeter 29.65" Hg
Pressure 1004 hPa
Elevation 17
METAR ENVA 161020Z 12009KT 9999 FEW025 SCT040 M05/M08 Q1004 NOSIG RMK WIND 670FT 16006KT
Observed Flight Rules
Dec-16 @ 10:20 UTC
(42 minutes ago)
VFR
Wind Visibility
120° at 9 knots 10,000+ meters
Clouds
  • Few at 2,500' AGL
  • Scattered at 4,000' AGL
Temperature Dewpoint
-5°C / 23°F -8°C / 18°F
Humidity Altimeter Pressure
80% 29.65" Hg 1004 hPa